หน้าหลัก
METAR-TAF:

METAR-TAF

ท่าอากาศยาน :

Los Alamos, นิวเม็กซิโก, สหรัฐอเมริกา

ละติจูด: 35-53N, ลองจิจูด: 106-17W, ความสูง: 2179 ม.

การสังเกตสภาพอากาศปัจจุบัน

รายงานได้ทำขึ้นเมื่อ 26 นาทีที่แล้ว ณ เวลา 03:55 UTC
ลม 7 นอตจากตะวันตก/ตะวันตกเฉียงใต้
อุณหภูมิ 18°C
ความชื้น 14%
ความกดอากาศ 1016 hPa
ทัศนวิสัย: 14.5 กม.
ท้องฟ้าแจ่มใส

METAR: KLAM 250355Z AUTO 24007KT 9SM CLR 18/M10 A3001 RMK AO2 T01851105 $

เวลา: 22:21 (04:21 UTC)


TAF: หายไป

สังเกตการณ์สภาพอากาศและพยากรณ์อากาศของสนามบินมากกว่า 4000 แห่ง (รายงาน METAR และ TAF).

สถานีที่ดูได้จะแสดงไว้ด้วยจุดสีเหลืองและสีแดงบนแผนที่.

เลื่อนเมาส์ไปเหนือจุดเพื่อดูชื่อสถานี.

แล้วคลิกเพื่อดูสังเกตการณ์และการพยากรณ์สภาพอากาศ.

ในการเปลี่ยนแผนที่: คลิกที่ปุ่มสีเขียวที่มีกากบาทสีดำเพื่อซูมเข้า; ที่ปุ่มสีเขียวที่มีขีดเพื่อซูมออก; หรือที่ลูกศรสีเขียวเพื่อไปยังแผนที่ที่อยู่ติดกัน.


METAR-TAF: